Latest Weather Observations for Yulara

IDD60801

Issued at 9:31 am CST Thursday 23 February 2017 (issued every 30 minutes, with the page automatically refreshed every 10 minutes)

About weather observations | Map of weather stations | Latest weather observations for NT | Other Formats
Station Details ID: 015635 Name: YULARA AIRPORT Lat: -25.19 Lon: 130.97 Height: 492.0 m
Data from the previous 72 hours. | See also: Recent months at Yulara
Date/Time
CST
Temp
°C
App
Temp
°C
Dew
Point
°C
Rel
Hum
%
Delta-T
°C
Wind Press
QNH
hPa
Press
MSL
hPa
Rain since
9am
mm
Dir  Spd
km/h
Gust
km/h
Spd
kts
Gust
kts
23/09:30am 26.4 20.2 4.2 24 11.4 ESE 26 39 14 21 1020.0 1016.3 0.0
23/09:00am 25.9 19.6 5.5 27 10.7 ESE 28 44 15 24 1019.8 1016.1 0.0
23/08:30am 23.9 19.0 5.3 30 9.6 SE 20 32 11 17 1019.5 1015.8 0.0
23/08:00am 22.5 18.3 5.9 34 8.6 SE 17 22 9 12 1019.3 1015.6 0.0
23/07:30am 21.3 17.8 5.6 36 8.0 SE 13 19 7 10 1018.8 1015.1 0.0
23/07:00am 19.9 17.3 6.3 41 7.0 SE 9 13 5 7 1018.3 1014.6 0.0
23/06:30am 18.4 16.0 7.2 48 5.8 S 9 9 5 5 1017.8 1014.1 0.0
23/06:00am 19.4 17.0 7.2 45 6.3 S 9 11 5 6 1017.5 1013.8 0.0
23/05:30am 20.7 17.6 7.3 42 7.0 S 13 19 7 10 1016.9 1013.1 0.0
23/05:00am 20.4 17.4 7.7 44 6.7 S 13 17 7 9 1016.8 1013.0 0.0
23/04:30am 21.7 19.4 7.5 40 7.5 SSE 9 11 5 6 1016.4 1012.7 0.0
23/04:00am 22.8 20.0 7.0 36 8.4 SSE 11 17 6 9 1015.9 1012.2 0.0
23/03:30am 23.6 20.1 7.3 35 8.7 SSE 15 20 8 11 1015.5 1011.8 0.0
23/03:00am 24.6 20.7 7.3 33 9.3 SSE 17 26 9 14 1015.4 1011.6 0.0
23/02:30am 25.1 20.9 7.3 32 9.6 SSE 19 22 10 12 1015.4 1011.6 0.0
23/02:00am 25.7 21.5 7.3 31 9.9 SSE 19 30 10 16 1015.6 1011.9 0.0
23/01:30am 25.6 22.3 8.1 33 9.6 S 15 24 8 13 1015.4 1011.6 0.0
23/01:00am 24.7 21.7 7.8 34 9.2 S 13 19 7 10 1015.6 1011.9 0.0
23/12:30am 25.5 22.9 7.6 32 9.7 SSW 11 15 6 8 1015.6 1011.9 0.0
23/12:00am 26.4 23.3 7.4 30 10.3 S 13 19 7 10 1015.6 1011.9 0.0
 
Date/Time
CST
Temp
°C
App
Temp
°C
Dew
Point
°C
Rel
Hum
%
Delta-T
°C
Wind Press
QNH
hPa
Press
MSL
hPa
Rain since
9am
mm
Dir  Spd
km/h
Gust
km/h
Spd
kts
Gust
kts
22/11:30pm 28.2 23.7 6.9 26 11.6 SSE 20 30 11 16 1015.7 1012.0 0.0
22/11:00pm 28.9 24.4 6.9 25 12.0 SSE 20 32 11 17 1015.7 1012.0 0.0
22/10:30pm 29.0 25.2 7.6 26 11.8 S 17 26 9 14 1015.5 1011.8 0.0
22/10:00pm 28.3 25.5 8.6 29 11.0 S 13 15 7 8 1015.2 1011.4 0.0
22/09:30pm 28.8 26.1 9.0 29 11.2 S 13 15 7 8 1014.8 1011.0 0.0
22/09:00pm 29.9 27.1 9.9 29 11.5 S 15 20 8 11 1014.3 1010.6 0.0
22/08:30pm 29.8 27.7 9.9 29 11.5 SSW 11 15 6 8 1013.9 1010.2 0.0
22/08:00pm 30.8 28.3 9.6 27 12.2 S 13 13 7 7 1013.4 1009.6 0.0
22/07:30pm 32.7 29.6 8.9 23 13.7 S 15 20 8 11 1013.0 1009.2 0.0
22/07:00pm 34.6 30.8 9.1 21 14.8 S 19 24 10 13 1012.5 1008.7 0.0
22/06:30pm 35.6 31.8 9.2 20 15.4 SSW 19 32 10 17 1012.1 1008.4 0.0
22/06:00pm 36.2 32.5 8.1 18 16.2 S 17 24 9 13 1011.9 1008.2 0.0
22/05:30pm 37.1 33.8 8.0 17 16.8 SW 15 20 8 11 1011.7 1007.9 0.0
22/05:00pm 37.2 34.5 7.2 16 17.1 W 11 19 6 10 1011.7 1007.9 0.0
22/04:30pm 37.3 35.6 8.2 17 16.9 SSW 7 17 4 9 1011.7 1007.9 0.0
22/04:00pm 37.2 35.1 8.1 17 16.8 W 9 20 5 11 1011.8 1008.1 0.0
22/03:30pm 36.3 33.2 7.4 17 16.5 NNW 13 17 7 9 1012.0 1008.3 0.0
22/03:00pm 36.4 33.1 6.6 16 16.8 WSW 13 24 7 13 1012.3 1008.6 0.0
22/02:30pm 36.5 33.3 8.4 18 16.3 W 15 28 8 15 1012.6 1008.8 0.0
22/02:00pm 36.5 33.6 6.6 16 16.9 NW 11 24 6 13 1012.9 1009.1 0.0
22/01:30pm 36.2 33.7 6.4 16 16.7 WNW 9 19 5 10 1013.4 1009.6 0.0
22/01:00pm 35.5 33.4 6.7 17 16.2 SSW 7 13 4 7 1013.8 1010.1 0.0
22/12:30pm 34.4 31.4 7.5 19 15.2 SW 13 20 7 11 1014.1 1010.4 0.0
22/12:00pm 32.9 29.0 7.0 20 14.5 SSW 17 28 9 15 1014.4 1010.7 0.0
22/11:30am 32.8 28.9 5.4 18 14.9 SSW 15 24 8 13 1014.9 1011.1 0.0
22/11:00am 32.2 27.4 4.9 18 14.7 SSW 19 28 10 15 1015.2 1011.4 0.0
22/10:30am 31.4 26.5 5.0 19 14.1 SSW 20 30 11 16 1015.4 1011.6 0.0
22/10:00am 30.7 25.8 5.2 20 13.7 SSW 20 32 11 17 1015.4 1011.6 0.0
22/09:30am 29.5 25.0 6.2 23 12.6 SSW 19 33 10 18 1015.2 1011.4 0.0
22/09:00am 27.7 24.5 8.6 30 10.7 SSW 15 35 8 19 1015.2 1011.4 -
22/08:30am 25.5 23.5 6.2 29 10.2 E 6 7 3 4 1013.9 1010.2 -
22/08:00am 22.6 20.9 7.6 38 8.0 SE 6 7 3 4 1013.9 1010.2 -
22/07:30am 19.0 17.6 8.9 52 5.4 S 6 7 3 4 1013.7 1010.0 -
22/07:00am 16.6 15.5 8.6 59 4.2 S 4 9 2 5 1013.4 1009.6 -
22/06:30am 16.2 14.6 8.2 59 4.2 S 6 7 3 4 1013.2 1009.4 -
22/06:00am 16.8 15.9 7.7 55 4.7 S 2 6 1 3 1012.8 1009.0 -
22/05:30am 16.9 15.3 8.1 56 4.6 SSW 6 7 3 4 1012.6 1008.8 -
22/05:00am 16.4 14.9 8.6 60 4.1 SSW 6 7 3 4 1012.2 1008.5 -
22/04:30am 17.0 16.7 8.7 58 4.4 CALM 0 0 0 0 1012.0 1008.3 -
22/04:00am 17.1 17.0 9.3 60 4.2 CALM 0 0 0 0 1011.9 1008.2 -
22/03:30am 17.8 17.7 9.4 58 4.5 CALM 0 0 0 0 1011.9 1008.2 -
22/03:00am 18.3 16.9 8.8 54 5.1 S 6 9 3 5 1012.0 1008.3 0.0
22/02:30am 18.1 17.9 9.2 56 4.8 CALM 0 0 0 0 1012.0 1008.3 -
22/02:00am 19.5 19.2 8.8 50 5.7 CALM 0 0 0 0 1012.2 1008.5 -
22/01:30am 19.9 19.4 9.2 50 5.8 WSW 2 6 1 3 1012.7 1008.9 -
22/01:00am 19.6 19.5 9.5 52 5.5 CALM 0 0 0 0 1013.0 1009.2 -
22/12:30am 19.6 19.7 10.3 55 5.1 CALM 0 0 0 0 1013.2 1009.4 -
22/12:00am 20.3 20.3 9.8 51 5.8 CALM 0 7 0 4 1013.3 1009.5 -
 
Date/Time
CST
Temp
°C
App
Temp
°C
Dew
Point
°C
Rel
Hum
%
Delta-T
°C
Wind Press
QNH
hPa
Press
MSL
hPa
Rain since
9am
mm
Dir  Spd
km/h
Gust
km/h
Spd
kts
Gust
kts
21/11:30pm 21.3 20.2 8.6 44 6.9 NNE 4 7 2 4 1013.2 1009.4 -
21/11:00pm 21.6 21.8 10.4 49 6.3 CALM 0 0 0 0 1013.3 1009.5 -
21/10:30pm 22.3 22.2 9.5 44 7.1 CALM 0 0 0 0 1013.3 1009.5 -
21/10:00pm 23.8 23.6 9.0 39 8.2 CALM 0 0 0 0 1013.3 1009.5 -
21/09:30pm 25.1 25.0 9.4 37 8.8 CALM 0 2 0 1 1013.1 1009.3 -
21/09:00pm 26.2 24.4 7.3 30 10.2 N 6 6 3 3 1012.9 1009.1 -
21/08:30pm 27.7 25.5 5.3 24 11.8 N 6 7 3 4 1012.6 1008.8 -
21/08:00pm 29.5 26.8 5.6 22 12.8 NNE 9 11 5 6 1012.3 1008.6 -
21/07:30pm 31.3 28.0 2.5 16 14.8 N 9 11 5 6 1011.8 1008.1 -
21/07:00pm 33.0 29.1 0.9 13 16.2 NNE 11 15 6 8 1011.4 1007.6 -
21/06:30pm 33.7 29.7 0.4 12 16.8 N 11 17 6 9 1011.2 1007.4 -
21/06:00pm 34.7 31.6 -0.1 11 17.5 N 6 9 3 5 1011.1 1007.3 -
21/05:30pm 35.2 31.2 0.3 11 17.7 NW 11 24 6 13 1011.1 1007.3 -
21/05:00pm 35.3 30.9 0.4 11 17.8 NW 13 26 7 14 1011.1 1007.3 -
21/04:00pm 35.0 31.3 0.2 11 17.6 WNW 9 15 5 8 1011.5 1007.7 0.0
21/03:30pm 34.6 30.1 -0.1 11 17.5 NNW 13 28 7 15 1011.8 1008.1 0.0
21/03:00pm 34.4 31.0 -0.3 11 17.4 WSW 7 13 4 7 1012.1 1008.4 0.0
21/02:30pm 34.0 29.5 -0.6 11 17.2 N 13 24 7 13 1012.9 1009.1 0.0
21/02:00pm 33.6 30.0 0.3 12 16.7 NE 9 15 5 8 1013.6 1009.9 0.0
21/01:30pm 32.9 29.2 -0.2 12 16.4 NW 9 22 5 12 1014.2 1010.5 0.0
21/01:00pm 32.0 27.0 -0.9 12 16.1 NNE 15 24 8 13 1014.8 1011.0 0.0
21/12:30pm 31.8 28.0 -1.1 12 16.0 NE 9 17 5 9 1015.1 1011.3 0.0
21/12:00pm 31.4 26.9 -0.3 13 15.6 NNE 13 20 7 11 1015.6 1011.9 0.0
21/11:30am 30.7 26.0 1.1 15 14.8 NNE 15 24 8 13 1016.1 1012.4 0.0
21/11:00am 29.5 23.7 0.2 15 14.3 NE 20 30 11 16 1016.6 1012.9 0.0
21/10:30am 29.1 22.8 1.6 17 13.7 NE 24 35 13 19 1017.0 1013.2 0.0
21/10:00am 28.0 21.3 1.5 18 13.1 NE 26 33 14 18 1017.3 1013.5 0.0
21/09:30am 26.9 20.5 3.4 22 11.9 NE 26 33 14 18 1017.3 1013.5 0.0
21/09:00am 25.2 19.1 2.6 23 11.2 ENE 24 32 13 17 1017.4 1013.7 0.0
21/08:30am 23.4 18.0 2.3 25 10.3 ENE 20 32 11 17 1017.2 1013.4 0.0
21/08:00am 20.9 16.3 1.7 28 9.1 ENE 15 20 8 11 1017.0 1013.2 0.0
21/07:30am 17.8 14.0 1.7 34 7.4 ESE 11 13 6 7 1016.5 1012.8 0.0
21/07:00am 15.1 11.7 1.6 40 6.1 SE 9 11 5 6 1016.2 1012.5 0.0
21/06:30am 14.2 10.7 1.5 42 5.7 SE 9 11 5 6 1015.9 1012.2 0.0
21/06:00am 14.7 11.6 1.6 41 5.9 SE 7 9 4 5 1015.5 1011.8 0.0
21/05:30am 15.7 12.2 1.1 37 6.5 ESE 9 11 5 6 1015.2 1011.4 0.0
21/05:00am 15.3 12.2 1.4 39 6.2 ESE 7 9 4 5 1015.0 1011.2 0.0
21/04:30am 13.6 10.7 2.5 47 5.0 SE 7 9 4 5 1015.0 1011.2 0.0
21/04:00am 15.5 11.9 0.5 36 6.6 SSE 9 11 5 6 1015.0 1011.2 0.0
21/03:30am 15.8 11.8 0.8 36 6.7 SSE 11 13 6 7 1015.0 1011.2 0.0
21/03:00am 15.5 12.5 2.3 41 6.0 SSE 7 9 4 5 1015.1 1011.3 0.0
21/02:30am 16.8 13.6 0.5 33 7.3 SSE 7 9 4 5 1015.0 1011.2 0.0
21/02:00am 19.7 16.0 -0.3 26 9.0 ENE 9 11 5 6 1014.9 1011.1 0.0
21/01:30am 20.2 16.1 -0.4 25 9.3 E 11 13 6 7 1014.9 1011.1 0.0
21/01:00am 20.6 16.4 -0.7 24 9.6 ENE 11 13 6 7 1015.0 1011.2 0.0
21/12:30am 21.5 17.0 -0.5 23 10.0 ENE 13 15 7 8 1015.1 1011.3 0.0
21/12:00am 21.9 17.3 -0.8 22 10.3 ENE 13 15 7 8 1015.1 1011.3 0.0
 
Date/Time
CST
Temp
°C
App
Temp
°C
Dew
Point
°C
Rel
Hum
%
Delta-T
°C
Wind Press
QNH
hPa
Press
MSL
hPa
Rain since
9am
mm
Dir  Spd
km/h
Gust
km/h
Spd
kts
Gust
kts
20/11:30pm 22.5 17.9 -0.9 21 10.6 ENE 13 15 7 8 1015.2 1011.4 0.0
20/11:00pm 23.4 18.8 -0.8 20 11.1 E 13 17 7 9 1015.3 1011.5 0.0
20/10:30pm 23.6 19.4 -0.6 20 11.2 E 11 15 6 8 1015.3 1011.5 0.0
20/10:00pm 24.3 19.7 -0.8 19 11.6 E 13 17 7 9 1015.3 1011.5 0.0
20/09:30pm 24.8 20.2 -1.1 18 11.9 ESE 13 15 7 8 1015.2 1011.4 0.0
20/09:00pm 25.5 20.9 -1.3 17 12.4 ESE 13 17 7 9 1014.8 1011.0 0.0
20/08:30pm 26.4 22.1 -1.4 16 12.9 ESE 11 15 6 8 1014.5 1010.8 0.0
20/08:00pm 27.5 23.0 -3.3 13 13.9 ESE 11 15 6 8 1014.1 1010.4 0.0
20/07:30pm 28.9 23.9 -4.5 11 15.0 E 13 17 7 9 1013.7 1010.0 0.0
20/07:00pm 30.4 24.1 -6.0 9 16.1 E 19 24 10 13 1013.4 1009.6 0.0
20/06:30pm 31.0 24.7 -5.5 9 16.4 E 19 24 10 13 1013.1 1009.3 0.0
20/06:00pm 31.2 24.9 -5.4 9 16.5 E 19 24 10 13 1013.0 1009.2 0.0
20/05:30pm 31.4 25.9 -5.2 9 16.5 ENE 15 24 8 13 1013.0 1009.2 0.0
20/05:00pm 31.9 26.1 -4.9 9 16.8 E 17 28 9 15 1012.9 1009.1 0.0
20/04:30pm 31.8 25.0 -4.9 9 16.7 E 22 32 12 17 1013.1 1009.3 0.0
20/04:00pm 31.5 25.1 -5.2 9 16.6 E 20 32 11 17 1013.4 1009.6 0.0
20/03:30pm 31.6 26.5 -5.1 9 16.6 E 13 26 7 14 1013.6 1009.9 0.0
20/03:00pm 30.9 25.3 -3.0 11 15.8 ENE 17 28 9 15 1013.8 1010.1 0.0
20/02:30pm 30.7 24.7 -3.1 11 15.7 E 19 24 10 13 1014.0 1010.3 0.0
20/02:00pm 29.8 24.4 -1.5 13 14.9 E 17 28 9 15 1014.5 1010.8 0.0
20/01:30pm 28.2 22.5 -0.9 15 13.8 ESE 19 37 10 20 1015.1 1011.3 0.0
20/01:00pm 28.3 22.5 0.1 16 13.6 E 20 35 11 19 1015.8 1012.1 0.0
20/12:30pm 28.0 22.9 0.7 17 13.3 ESE 17 33 9 18 1016.2 1012.5 0.0
20/12:00pm 27.2 21.7 0.8 18 12.8 ENE 19 28 10 15 1016.6 1012.9 0.0
20/11:30am 26.7 21.4 1.9 20 12.2 ENE 19 28 10 15 1017.1 1013.3 0.0
20/11:00am 25.9 19.9 1.2 20 12.0 E 22 33 12 18 1017.5 1013.8 0.0
20/10:30am 25.3 18.5 0.8 20 11.7 E 26 35 14 19 1017.8 1014.1 0.0
20/10:00am 24.2 17.5 1.2 22 11.0 E 26 37 14 20 1018.0 1014.3 0.0

Other Formats:

Comma delimited format used in spreadsheet applications
http://www.bom.gov.au/fwo/IDD60801/IDD60801.94462.axf

JavaScript Object Notation format (JSON) in row-major order
http://www.bom.gov.au/fwo/IDD60801/IDD60801.94462.json